sensor_id;sensor_type;location;lat;lon;timestamp;pressure;altitude;pressure_sealevel;temperature;humidity
59375;BME280;45172;55.006;73.460;2023-11-21T00:01:42;102748.41;;;-12.78;nan
59375;BME280;45172;55.006;73.460;2023-11-21T00:04:09;102722.25;;;-12.94;nan
59375;BME280;45172;55.006;73.460;2023-11-21T00:06:35;102768.34;;;-12.70;nan
59375;BME280;45172;55.006;73.460;2023-11-21T00:09:01;102729.19;;;-12.87;nan
59375;BME280;45172;55.006;73.460;2023-11-21T00:11:28;102766.94;;;-12.68;nan
59375;BME280;45172;55.006;73.460;2023-11-21T00:13:55;102779.03;;;-12.67;nan
59375;BME280;45172;55.006;73.460;2023-11-21T00:16:21;102776.03;;;-12.75;nan
59375;BME280;45172;55.006;73.460;2023-11-21T00:18:48;102796.44;;;-12.70;nan
59375;BME280;45172;55.006;73.460;2023-11-21T00:21:14;102800.41;;;-12.77;nan
59375;BME280;45172;55.006;73.460;2023-11-21T00:23:41;102818.00;;;-12.68;nan
59375;BME280;45172;55.006;73.460;2023-11-21T00:26:07;102806.66;;;-12.75;nan
59375;BME280;45172;55.006;73.460;2023-11-21T00:28:33;102798.09;;;-12.82;nan
59375;BME280;45172;55.006;73.460;2023-11-21T00:30:59;102818.25;;;-12.72;nan
59375;BME280;45172;55.006;73.460;2023-11-21T00:33:26;102818.50;;;-12.70;nan
59375;BME280;45172;55.006;73.460;2023-11-21T00:35:53;102818.94;;;-12.67;nan
59375;BME280;45172;55.006;73.460;2023-11-21T00:38:19;102775.41;;;-12.97;nan
59375;BME280;45172;55.006;73.460;2023-11-21T00:40:46;102840.03;;;-12.62;nan
59375;BME280;45172;55.006;73.460;2023-11-21T00:43:12;102849.75;;;-12.43;nan
59375;BME280;45172;55.006;73.460;2023-11-21T00:45:38;102842.69;;;-12.27;nan
59375;BME280;45172;55.006;73.460;2023-11-21T00:48:07;102841.97;;;-12.20;nan
59375;BME280;45172;55.006;73.460;2023-11-21T00:50:34;102812.94;;;-12.20;nan
59375;BME280;45172;55.006;73.460;2023-11-21T00:53:00;102814.03;;;-12.07;nan
59375;BME280;45172;55.006;73.460;2023-11-21T00:55:27;102839.81;;;-11.75;nan
59375;BME280;45172;55.006;73.460;2023-11-21T00:57:53;102812.00;;;-11.85;nan
59375;BME280;45172;55.006;73.460;2023-11-21T01:00:20;102835.16;;;-11.72;nan
59375;BME280;45172;55.006;73.460;2023-11-21T01:02:46;102829.22;;;-11.60;nan
59375;BME280;45172;55.006;73.460;2023-11-21T01:05:13;102845.06;;;-11.32;nan
59375;BME280;45172;55.006;73.460;2023-11-21T01:07:39;102813.22;;;-11.34;nan
59375;BME280;45172;55.006;73.460;2023-11-21T01:10:06;102839.09;;;-11.14;nan
59375;BME280;45172;55.006;73.460;2023-11-21T01:12:37;102837.69;;;-11.12;nan
59375;BME280;45172;55.006;73.460;2023-11-21T01:15:07;102847.31;;;-11.22;nan
59375;BME280;45172;55.006;73.460;2023-11-21T01:17:33;102841.81;;;-11.31;nan
59375;BME280;45172;55.006;73.460;2023-11-21T01:20:00;102840.81;;;-11.50;nan
59375;BME280;45172;55.006;73.460;2023-11-21T01:22:27;102849.25;;;-11.63;nan
59375;BME280;45172;55.006;73.460;2023-11-21T01:24:54;102822.28;;;-11.97;nan
59375;BME280;45172;55.006;73.460;2023-11-21T01:27:20;102824.97;;;-12.08;nan
59375;BME280;45172;55.006;73.460;2023-11-21T01:29:46;102849.66;;;-12.20;nan
59375;BME280;45172;55.006;73.460;2023-11-21T01:32:13;102851.09;;;-12.33;nan
59375;BME280;45172;55.006;73.460;2023-11-21T01:34:39;102843.47;;;-12.45;nan
59375;BME280;45172;55.006;73.460;2023-11-21T01:37:05;102858.09;;;-12.49;nan
59375;BME280;45172;55.006;73.460;2023-11-21T01:39:31;102860.47;;;-12.62;nan
59375;BME280;45172;55.006;73.460;2023-11-21T01:41:57;102862.88;;;-12.81;nan
59375;BME280;45172;55.006;73.460;2023-11-21T01:44:24;102848.50;;;-12.92;nan
59375;BME280;45172;55.006;73.460;2023-11-21T01:46:51;102837.59;;;-13.02;nan
59375;BME280;45172;55.006;73.460;2023-11-21T01:49:18;102844.31;;;-13.14;nan
59375;BME280;45172;55.006;73.460;2023-11-21T01:51:47;102845.94;;;-13.09;nan
59375;BME280;45172;55.006;73.460;2023-11-21T01:54:18;102849.22;;;-13.10;nan
59375;BME280;45172;55.006;73.460;2023-11-21T01:56:47;102837.41;;;-13.27;nan
59375;BME280;45172;55.006;73.460;2023-11-21T01:59:20;102850.84;;;-13.28;nan
59375;BME280;45172;55.006;73.460;2023-11-21T02:01:49;102852.94;;;-13.37;nan
59375;BME280;45172;55.006;73.460;2023-11-21T02:04:19;102846.00;;;-13.43;nan
59375;BME280;45172;55.006;73.460;2023-11-21T02:06:46;102841.34;;;-13.57;nan
59375;BME280;45172;55.006;73.460;2023-11-21T02:09:13;102844.81;;;-13.68;nan
59375;BME280;45172;55.006;73.460;2023-11-21T02:11:42;102848.28;;;-13.79;nan
59375;BME280;45172;55.006;73.460;2023-11-21T02:14:08;102828.59;;;-13.92;nan
59375;BME280;45172;55.006;73.460;2023-11-21T02:16:35;102819.31;;;-13.97;nan
59375;BME280;45172;55.006;73.460;2023-11-21T02:19:02;102839.00;;;-13.96;nan
59375;BME280;45172;55.006;73.460;2023-11-21T02:21:30;102820.41;;;-14.18;nan
59375;BME280;45172;55.006;73.460;2023-11-21T02:23:57;102850.31;;;-14.11;nan
59375;BME280;45172;55.006;73.460;2023-11-21T02:26:23;102829.44;;;-14.25;nan
59375;BME280;45172;55.006;73.460;2023-11-21T02:28:49;102854.91;;;-14.20;nan
59375;BME280;45172;55.006;73.460;2023-11-21T02:31:15;102848.66;;;-14.22;nan
59375;BME280;45172;55.006;73.460;2023-11-21T02:33:42;102874.63;;;-14.13;nan
59375;BME280;45172;55.006;73.460;2023-11-21T02:36:10;102863.94;;;-14.16;nan
59375;BME280;45172;55.006;73.460;2023-11-21T02:38:36;102873.94;;;-14.12;nan
59375;BME280;45172;55.006;73.460;2023-11-21T02:41:02;102870.69;;;-14.11;nan
59375;BME280;45172;55.006;73.460;2023-11-21T02:43:30;102865.34;;;-14.18;nan
59375;BME280;45172;55.006;73.460;2023-11-21T02:45:56;102874.38;;;-14.14;nan
59375;BME280;45172;55.006;73.460;2023-11-21T02:48:22;102852.81;;;-14.22;nan
59375;BME280;45172;55.006;73.460;2023-11-21T02:50:51;102848.41;;;-14.23;nan
59375;BME280;45172;55.006;73.460;2023-11-21T02:53:19;102861.16;;;-14.18;nan
59375;BME280;45172;55.006;73.460;2023-11-21T02:55:45;102859.56;;;-14.11;nan
59375;BME280;45172;55.006;73.460;2023-11-21T02:58:11;102859.81;;;-14.10;nan
59375;BME280;45172;55.006;73.460;2023-11-21T03:00:37;102850.75;;;-14.13;nan
59375;BME280;45172;55.006;73.460;2023-11-21T03:03:06;102847.06;;;-14.10;nan
59375;BME280;45172;55.006;73.460;2023-11-21T03:05:32;102847.06;;;-14.04;nan
59375;BME280;45172;55.006;73.460;2023-11-21T03:08:01;102849.63;;;-14.10;nan
59375;BME280;45172;55.006;73.460;2023-11-21T03:10:27;102840.13;;;-14.16;nan
59375;BME280;45172;55.006;73.460;2023-11-21T03:12:53;102863.75;;;-14.12;nan
59375;BME280;45172;55.006;73.460;2023-11-21T03:15:20;102858.16;;;-14.09;nan
59375;BME280;45172;55.006;73.460;2023-11-21T03:17:46;102844.72;;;-14.14;nan
59375;BME280;45172;55.006;73.460;2023-11-21T03:20:15;102821.34;;;-14.17;nan
59375;BME280;45172;55.006;73.460;2023-11-21T03:22:42;102840.84;;;-13.95;nan
59375;BME280;45172;55.006;73.460;2023-11-21T03:25:08;102818.81;;;-14.06;nan
59375;BME280;45172;55.006;73.460;2023-11-21T03:27:36;102841.78;;;-13.83;nan
59375;BME280;45172;55.006;73.460;2023-11-21T03:30:05;102843.19;;;-13.79;nan
59375;BME280;45172;55.006;73.460;2023-11-21T03:32:33;102836.72;;;-13.77;nan
59375;BME280;45172;55.006;73.460;2023-11-21T03:34:59;102852.94;;;-13.71;nan
59375;BME280;45172;55.006;73.460;2023-11-21T03:37:28;102856.88;;;-13.67;nan
59375;BME280;45172;55.006;73.460;2023-11-21T03:39:55;102855.50;;;-13.65;nan
59375;BME280;45172;55.006;73.460;2023-11-21T03:42:21;102836.97;;;-13.64;nan
59375;BME280;45172;55.006;73.460;2023-11-21T03:44:48;102840.66;;;-13.56;nan
59375;BME280;45172;55.006;73.460;2023-11-21T03:47:14;102867.53;;;-13.41;nan
59375;BME280;45172;55.006;73.460;2023-11-21T03:49:40;102863.38;;;-13.35;nan
59375;BME280;45172;55.006;73.460;2023-11-21T03:52:07;102863.38;;;-13.35;nan
59375;BME280;45172;55.006;73.460;2023-11-21T03:54:33;102862.88;;;-13.32;nan
59375;BME280;45172;55.006;73.460;2023-11-21T03:57:00;102858.72;;;-13.38;nan
59375;BME280;45172;55.006;73.460;2023-11-21T03:59:26;102871.72;;;-13.25;nan
59375;BME280;45172;55.006;73.460;2023-11-21T04:01:55;102857.78;;;-13.38;nan
59375;BME280;45172;55.006;73.460;2023-11-21T04:04:21;102868.47;;;-13.24;nan
59375;BME280;45172;55.006;73.460;2023-11-21T04:06:48;102834.84;;;-13.21;nan
59375;BME280;45172;55.006;73.460;2023-11-21T04:09:14;102833.22;;;-13.15;nan
59375;BME280;45172;55.006;73.460;2023-11-21T04:11:40;102818.59;;;-13.27;nan
59375;BME280;45172;55.006;73.460;2023-11-21T04:14:06;102865.66;;;-13.08;nan
59375;BME280;45172;55.006;73.460;2023-11-21T04:16:33;102849.44;;;-13.09;nan
59375;BME280;45172;55.006;73.460;2023-11-21T04:18:59;102852.66;;;-13.10;nan
59375;BME280;45172;55.006;73.460;2023-11-21T04:21:26;102839.94;;;-13.04;nan
59375;BME280;45172;55.006;73.460;2023-11-21T04:23:52;102835.97;;;-13.02;nan
59375;BME280;45172;55.006;73.460;2023-11-21T04:26:18;102815.13;;;-13.16;nan
59375;BME280;45172;55.006;73.460;2023-11-21T04:28:44;102836.19;;;-13.06;nan
59375;BME280;45172;55.006;73.460;2023-11-21T04:31:11;102827.41;;;-13.14;nan
59375;BME280;45172;55.006;73.460;2023-11-21T04:33:37;102849.69;;;-13.01;nan
59375;BME280;45172;55.006;73.460;2023-11-21T04:36:03;102804.91;;;-13.16;nan
59375;BME280;45172;55.006;73.460;2023-11-21T04:38:30;102839.91;;;-12.98;nan
59375;BME280;45172;55.006;73.460;2023-11-21T04:40:56;102815.78;;;-13.06;nan
59375;BME280;45172;55.006;73.460;2023-11-21T04:43:22;102828.06;;;-12.98;nan
59375;BME280;45172;55.006;73.460;2023-11-21T04:45:48;102800.47;;;-13.06;nan
59375;BME280;45172;55.006;73.460;2023-11-21T04:48:15;102808.56;;;-12.91;nan
59375;BME280;45172;55.006;73.460;2023-11-21T04:50:42;102785.16;;;-12.95;nan
59375;BME280;45172;55.006;73.460;2023-11-21T04:53:08;102795.31;;;-12.89;nan
59375;BME280;45172;55.006;73.460;2023-11-21T04:55:34;102769.81;;;-12.89;nan
59375;BME280;45172;55.006;73.460;2023-11-21T04:58:00;102766.34;;;-12.89;nan
59375;BME280;45172;55.006;73.460;2023-11-21T05:00:26;102784.84;;;-12.79;nan
59375;BME280;45172;55.006;73.460;2023-11-21T05:02:53;102812.00;;;-12.74;nan
59375;BME280;45172;55.006;73.460;2023-11-21T05:05:19;102821.94;;;-12.58;nan
59375;BME280;45172;55.006;73.460;2023-11-21T05:07:45;102820.97;;;-12.53;nan
59375;BME280;45172;55.006;73.460;2023-11-21T05:10:11;102817.31;;;-12.61;nan
59375;BME280;45172;55.006;73.460;2023-11-21T05:12:41;102834.22;;;-12.50;nan
59375;BME280;45172;55.006;73.460;2023-11-21T05:15:08;102836.06;;;-12.49;nan
59375;BME280;45172;55.006;73.460;2023-11-21T05:17:38;102819.81;;;-12.55;nan
59375;BME280;45172;55.006;73.460;2023-11-21T05:20:13;102827.72;;;-12.59;nan
59375;BME280;45172;55.006;73.460;2023-11-21T05:22:40;102843.75;;;-12.55;nan
59375;BME280;45172;55.006;73.460;2023-11-21T05:25:08;102824.03;;;-12.61;nan
59375;BME280;45172;55.006;73.460;2023-11-21T05:27:35;102836.09;;;-12.55;nan
59375;BME280;45172;55.006;73.460;2023-11-21T05:30:03;102824.94;;;-12.55;nan
59375;BME280;45172;55.006;73.460;2023-11-21T05:32:33;102818.13;;;-12.38;nan
59375;BME280;45172;55.006;73.460;2023-11-21T05:34:59;102818.28;;;-12.25;nan
59375;BME280;45172;55.006;73.460;2023-11-21T05:37:26;102810.41;;;-12.26;nan
59375;BME280;45172;55.006;73.460;2023-11-21T05:39:53;102816.91;;;-12.22;nan
59375;BME280;45172;55.006;73.460;2023-11-21T05:42:22;102780.97;;;-12.41;nan
59375;BME280;45172;55.006;73.460;2023-11-21T05:44:49;102821.03;;;-12.12;nan
59375;BME280;45172;55.006;73.460;2023-11-21T05:47:15;102839.59;;;-12.07;nan
59375;BME280;45172;55.006;73.460;2023-11-21T05:49:41;102801.75;;;-12.15;nan
59375;BME280;45172;55.006;73.460;2023-11-21T05:52:07;102816.78;;;-12.05;nan
59375;BME280;45172;55.006;73.460;2023-11-21T05:54:33;102826.25;;;-11.99;nan
59375;BME280;45172;55.006;73.460;2023-11-21T05:57:00;102831.09;;;-11.94;nan
59375;BME280;45172;55.006;73.460;2023-11-21T05:59:26;102830.41;;;-11.93;nan
59375;BME280;45172;55.006;73.460;2023-11-21T06:01:52;102823.41;;;-11.94;nan
59375;BME280;45172;55.006;73.460;2023-11-21T06:04:19;102809.09;;;-12.05;nan
59375;BME280;45172;55.006;73.460;2023-11-21T06:06:51;102823.06;;;-12.03;nan
59375;BME280;45172;55.006;73.460;2023-11-21T06:09:17;102797.09;;;-12.12;nan
59375;BME280;45172;55.006;73.460;2023-11-21T06:11:43;102808.19;;;-12.06;nan
59375;BME280;45172;55.006;73.460;2023-11-21T06:14:09;102827.63;;;-11.95;nan
59375;BME280;45172;55.006;73.460;2023-11-21T06:16:36;102810.63;;;-11.89;nan
59375;BME280;45172;55.006;73.460;2023-11-21T06:19:02;102818.25;;;-11.83;nan
59375;BME280;45172;55.006;73.460;2023-11-21T06:21:28;102813.78;;;-11.78;nan
59375;BME280;45172;55.006;73.460;2023-11-21T06:23:55;102814.16;;;-11.64;nan
59375;BME280;45172;55.006;73.460;2023-11-21T06:26:22;102797.84;;;-11.59;nan
59375;BME280;45172;55.006;73.460;2023-11-21T06:28:50;102778.47;;;-11.51;nan
59375;BME280;45172;55.006;73.460;2023-11-21T06:31:17;102788.63;;;-11.39;nan
59375;BME280;45172;55.006;73.460;2023-11-21T06:33:43;102792.78;;;-11.40;nan
59375;BME280;45172;55.006;73.460;2023-11-21T06:36:10;102772.63;;;-11.50;nan
59375;BME280;45172;55.006;73.460;2023-11-21T06:38:37;102788.63;;;-11.39;nan
59375;BME280;45172;55.006;73.460;2023-11-21T06:41:04;102771.53;;;-11.27;nan
59375;BME280;45172;55.006;73.460;2023-11-21T06:43:30;102767.88;;;-11.17;nan
59375;BME280;45172;55.006;73.460;2023-11-21T06:45:59;102758.34;;;-11.12;nan
59375;BME280;45172;55.006;73.460;2023-11-21T06:48:25;102768.81;;;-10.92;nan
59375;BME280;45172;55.006;73.460;2023-11-21T06:50:51;102740.31;;;-10.82;nan
59375;BME280;45172;55.006;73.460;2023-11-21T06:53:18;102764.41;;;-10.74;nan
59375;BME280;45172;55.006;73.460;2023-11-21T06:55:44;102763.75;;;-10.60;nan
59375;BME280;45172;55.006;73.460;2023-11-21T06:58:10;102751.94;;;-10.47;nan
59375;BME280;45172;55.006;73.460;2023-11-21T07:00:37;102751.91;;;-10.28;nan
59375;BME280;45172;55.006;73.460;2023-11-21T07:03:04;102749.75;;;-10.25;nan
59375;BME280;45172;55.006;73.460;2023-11-21T07:05:30;102765.13;;;-10.25;nan
59375;BME280;45172;55.006;73.460;2023-11-21T07:07:56;102747.78;;;-10.33;nan
59375;BME280;45172;55.006;73.460;2023-11-21T07:10:23;102742.03;;;-10.38;nan
59375;BME280;45172;55.006;73.460;2023-11-21T07:12:49;102737.38;;;-10.40;nan
59375;BME280;45172;55.006;73.460;2023-11-21T07:15:17;102740.78;;;-10.47;nan
59375;BME280;45172;55.006;73.460;2023-11-21T07:17:45;102734.50;;;-10.49;nan
59375;BME280;45172;55.006;73.460;2023-11-21T07:20:12;102729.69;;;-10.53;nan
59375;BME280;45172;55.006;73.460;2023-11-21T07:22:39;102739.22;;;-10.39;nan
59375;BME280;45172;55.006;73.460;2023-11-21T07:25:06;102743.56;;;-10.33;nan
59375;BME280;45172;55.006;73.460;2023-11-21T07:27:33;102748.09;;;-10.24;nan
59375;BME280;45172;55.006;73.460;2023-11-21T07:30:02;102736.06;;;-10.12;nan
59375;BME280;45172;55.006;73.460;2023-11-21T07:32:31;102719.41;;;-10.22;nan
59375;BME280;45172;55.006;73.460;2023-11-21T07:34:57;102732.06;;;-10.10;nan
59375;BME280;45172;55.006;73.460;2023-11-21T07:37:25;102702.19;;;-10.10;nan
59375;BME280;45172;55.006;73.460;2023-11-21T07:39:54;102697.69;;;-10.05;nan
59375;BME280;45172;55.006;73.460;2023-11-21T07:42:23;102672.97;;;-10.18;nan
59375;BME280;45172;55.006;73.460;2023-11-21T07:44:52;102706.84;;;-9.94;nan
59375;BME280;45172;55.006;73.460;2023-11-21T07:47:18;102696.41;;;-9.96;nan
59375;BME280;45172;55.006;73.460;2023-11-21T07:49:44;102708.06;;;-9.98;nan
59375;BME280;45172;55.006;73.460;2023-11-21T07:52:13;102702.03;;;-9.98;nan
59375;BME280;45172;55.006;73.460;2023-11-21T07:54:40;102712.38;;;-10.04;nan
59375;BME280;45172;55.006;73.460;2023-11-21T07:57:07;102728.06;;;-10.08;nan
59375;BME280;45172;55.006;73.460;2023-11-21T07:59:33;102739.66;;;-10.05;nan
59375;BME280;45172;55.006;73.460;2023-11-21T08:02:00;102706.91;;;-10.13;nan
59375;BME280;45172;55.006;73.460;2023-11-21T08:04:26;102664.34;;;-10.18;nan
59375;BME280;45172;55.006;73.460;2023-11-21T08:06:52;102678.34;;;-10.03;nan
59375;BME280;45172;55.006;73.460;2023-11-21T08:09:18;102660.66;;;-10.07;nan
59375;BME280;45172;55.006;73.460;2023-11-21T08:11:45;102660.16;;;-10.05;nan
59375;BME280;45172;55.006;73.460;2023-11-21T08:14:12;102686.53;;;-9.93;nan
59375;BME280;45172;55.006;73.460;2023-11-21T08:16:38;102671.25;;;-9.98;nan
59375;BME280;45172;55.006;73.460;2023-11-21T08:19:04;102657.81;;;-10.03;nan
59375;BME280;45172;55.006;73.460;2023-11-21T08:21:32;102686.66;;;-9.85;nan
59375;BME280;45172;55.006;73.460;2023-11-21T08:23:58;102685.94;;;-9.84;nan
59375;BME280;45172;55.006;73.460;2023-11-21T08:26:25;102671.16;;;-9.93;nan
59375;BME280;45172;55.006;73.460;2023-11-21T08:28:52;102673.09;;;-9.97;nan
59375;BME280;45172;55.006;73.460;2023-11-21T08:31:24;102662.13;;;-9.96;nan
59375;BME280;45172;55.006;73.460;2023-11-21T08:33:50;102669.03;;;-9.89;nan
59375;BME280;45172;55.006;73.460;2023-11-21T08:36:16;102673.31;;;-9.96;nan
59375;BME280;45172;55.006;73.460;2023-11-21T08:38:43;102672.88;;;-9.99;nan
59375;BME280;45172;55.006;73.460;2023-11-21T08:41:09;102674.16;;;-9.89;nan
59375;BME280;45172;55.006;73.460;2023-11-21T08:43:36;102675.38;;;-9.80;nan
59375;BME280;45172;55.006;73.460;2023-11-21T08:46:08;102653.41;;;-9.91;nan
59375;BME280;45172;55.006;73.460;2023-11-21T08:48:37;102658.44;;;-9.85;nan
59375;BME280;45172;55.006;73.460;2023-11-21T08:51:04;102662.03;;;-9.65;nan
59375;BME280;45172;55.006;73.460;2023-11-21T08:53:30;102662.84;;;-9.45;nan
59375;BME280;45172;55.006;73.460;2023-11-21T08:55:57;102657.72;;;-9.45;nan
59375;BME280;45172;55.006;73.460;2023-11-21T08:58:23;102640.38;;;-9.41;nan
59375;BME280;45172;55.006;73.460;2023-11-21T09:00:49;102664.88;;;-9.17;nan
59375;BME280;45172;55.006;73.460;2023-11-21T09:03:15;102645.56;;;-9.20;nan
59375;BME280;45172;55.006;73.460;2023-11-21T09:05:42;102614.34;;;-9.24;nan
59375;BME280;45172;55.006;73.460;2023-11-21T09:08:08;102617.19;;;-9.15;nan
59375;BME280;45172;55.006;73.460;2023-11-21T09:10:43;102600.06;;;-9.22;nan
59375;BME280;45172;55.006;73.460;2023-11-21T09:13:13;102615.34;;;-9.16;nan
59375;BME280;45172;55.006;73.460;2023-11-21T09:15:39;102613.63;;;-9.23;nan
59375;BME280;45172;55.006;73.460;2023-11-21T09:18:05;102618.31;;;-9.13;nan
59375;BME280;45172;55.006;73.460;2023-11-21T09:20:32;102602.84;;;-9.20;nan
59375;BME280;45172;55.006;73.460;2023-11-21T09:22:58;102599.56;;;-9.32;nan
59375;BME280;45172;55.006;73.460;2023-11-21T09:25:24;102589.75;;;-9.42;nan
59375;BME280;45172;55.006;73.460;2023-11-21T09:27:51;102594.66;;;-9.43;nan
59375;BME280;45172;55.006;73.460;2023-11-21T09:30:17;102577.34;;;-9.52;nan
59375;BME280;45172;55.006;73.460;2023-11-21T09:32:43;102587.59;;;-9.52;nan
59375;BME280;45172;55.006;73.460;2023-11-21T09:35:11;102597.66;;;-9.53;nan
59375;BME280;45172;55.006;73.460;2023-11-21T09:37:39;102598.72;;;-9.58;nan
59375;BME280;45172;55.006;73.460;2023-11-21T09:40:10;102594.09;;;-9.61;nan
59375;BME280;45172;55.006;73.460;2023-11-21T09:42:40;102594.13;;;-9.74;nan
59375;BME280;45172;55.006;73.460;2023-11-21T09:45:29;102600.56;;;-9.83;nan
59375;BME280;45172;55.006;73.460;2023-11-21T09:47:57;102598.31;;;-9.87;nan
59375;BME280;45172;55.006;73.460;2023-11-21T09:50:24;102601.59;;;-9.88;nan
59375;BME280;45172;55.006;73.460;2023-11-21T09:52:57;102594.81;;;-9.88;nan
59375;BME280;45172;55.006;73.460;2023-11-21T09:55:26;102584.56;;;-10.01;nan
59375;BME280;45172;55.006;73.460;2023-11-21T09:57:56;102604.06;;;-9.96;nan
59375;BME280;45172;55.006;73.460;2023-11-21T10:00:22;102602.72;;;-9.99;nan
59375;BME280;45172;55.006;73.460;2023-11-21T10:02:53;102616.06;;;-10.02;nan
59375;BME280;45172;55.006;73.460;2023-11-21T10:05:20;102618.00;;;-10.07;nan
59375;BME280;45172;55.006;73.460;2023-11-21T10:07:49;102628.78;;;-10.09;nan
59375;BME280;45172;55.006;73.460;2023-11-21T10:10:18;102605.88;;;-10.21;nan
59375;BME280;45172;55.006;73.460;2023-11-21T10:12:50;102596.78;;;-10.19;nan
59375;BME280;45172;55.006;73.460;2023-11-21T10:15:22;102598.91;;;-10.22;nan
59375;BME280;45172;55.006;73.460;2023-11-21T10:17:52;102614.41;;;-10.14;nan
59375;BME280;45172;55.006;73.460;2023-11-21T10:20:19;102619.53;;;-10.14;nan
59375;BME280;45172;55.006;73.460;2023-11-21T10:22:46;102590.09;;;-10.37;nan
59375;BME280;45172;55.006;73.460;2023-11-21T10:25:12;102606.59;;;-10.22;nan
59375;BME280;45172;55.006;73.460;2023-11-21T10:27:48;102582.28;;;-10.31;nan
59375;BME280;45172;55.006;73.460;2023-11-21T10:30:16;102585.97;;;-10.29;nan
59375;BME280;45172;55.006;73.460;2023-11-21T10:32:42;102591.41;;;-10.33;nan
59375;BME280;45172;55.006;73.460;2023-11-21T10:35:09;102593.88;;;-10.40;nan
59375;BME280;45172;55.006;73.460;2023-11-21T10:37:38;102593.69;;;-10.42;nan
59375;BME280;45172;55.006;73.460;2023-11-21T10:40:12;102602.09;;;-10.43;nan
59375;BME280;45172;55.006;73.460;2023-11-21T10:42:39;102560.03;;;-10.64;nan
59375;BME280;45172;55.006;73.460;2023-11-21T10:45:06;102590.28;;;-10.48;nan
59375;BME280;45172;55.006;73.460;2023-11-21T10:47:44;102592.16;;;-10.47;nan
59375;BME280;45172;55.006;73.460;2023-11-21T10:50:10;102594.28;;;-10.50;nan
59375;BME280;45172;55.006;73.460;2023-11-21T10:52:39;102578.28;;;-10.55;nan
59375;BME280;45172;55.006;73.460;2023-11-21T10:55:20;102568.03;;;-10.55;nan
59375;BME280;45172;55.006;73.460;2023-11-21T10:57:51;102548.38;;;-10.62;nan
59375;BME280;45172;55.006;73.460;2023-11-21T11:00:21;102539.47;;;-10.58;nan
59375;BME280;45172;55.006;73.460;2023-11-21T11:02:51;102554.00;;;-10.51;nan
59375;BME280;45172;55.006;73.460;2023-11-21T11:05:21;102560.47;;;-10.48;nan
59375;BME280;45172;55.006;73.460;2023-11-21T11:07:50;102540.25;;;-10.52;nan
59375;BME280;45172;55.006;73.460;2023-11-21T11:10:30;102499.84;;;-10.73;nan
59375;BME280;45172;55.006;73.460;2023-11-21T11:12:57;102527.34;;;-10.59;nan
59375;BME280;45172;55.006;73.460;2023-11-21T11:15:25;102528.50;;;-10.57;nan
59375;BME280;45172;55.006;73.460;2023-11-21T11:17:51;102531.66;;;-10.65;nan
59375;BME280;45172;55.006;73.460;2023-11-21T11:20:18;102523.13;;;-10.71;nan
59375;BME280;45172;55.006;73.460;2023-11-21T11:23:22;102514.72;;;-10.70;nan
59375;BME280;45172;55.006;73.460;2023-11-21T11:31:26;102512.16;;;-10.70;nan
59375;BME280;45172;55.006;73.460;2023-11-21T11:36:26;102490.44;;;-10.67;nan
59375;BME280;45172;55.006;73.460;2023-11-21T11:38:55;102496.91;;;-10.63;nan
59375;BME280;45172;55.006;73.460;2023-11-21T11:41:26;102478.56;;;-10.66;nan
59375;BME280;45172;55.006;73.460;2023-11-21T11:43:53;102493.03;;;-10.54;nan
59375;BME280;45172;55.006;73.460;2023-11-21T11:46:20;102461.97;;;-10.63;nan
59375;BME280;45172;55.006;73.460;2023-11-21T11:49:02;102468.44;;;-10.46;nan
59375;BME280;45172;55.006;73.460;2023-11-21T11:51:29;102462.78;;;-10.43;nan
59375;BME280;45172;55.006;73.460;2023-11-21T11:53:57;102456.97;;;-10.42;nan
59375;BME280;45172;55.006;73.460;2023-11-21T11:56:28;102453.41;;;-10.30;nan
59375;BME280;45172;55.006;73.460;2023-11-21T11:59:01;102454.63;;;-10.21;nan
59375;BME280;45172;55.006;73.460;2023-11-21T12:01:33;102444.38;;;-10.08;nan
59375;BME280;45172;55.006;73.460;2023-11-21T12:06:43;102452.38;;;-9.79;nan
59375;BME280;45172;55.006;73.460;2023-11-21T12:09:19;102442.41;;;-9.70;nan
59375;BME280;45172;55.006;73.460;2023-11-21T12:11:48;102441.56;;;-9.63;nan
59375;BME280;45172;55.006;73.460;2023-11-21T12:14:15;102452.97;;;-9.61;nan
59375;BME280;45172;55.006;73.460;2023-11-21T12:16:42;102431.13;;;-9.65;nan
59375;BME280;45172;55.006;73.460;2023-11-21T12:19:11;102446.97;;;-9.54;nan
59375;BME280;45172;55.006;73.460;2023-11-21T12:21:51;102453.22;;;-9.52;nan
59375;BME280;45172;55.006;73.460;2023-11-21T12:24:29;102466.13;;;-9.45;nan
59375;BME280;45172;55.006;73.460;2023-11-21T12:27:03;102465.09;;;-9.40;nan
59375;BME280;45172;55.006;73.460;2023-11-21T12:29:30;102467.72;;;-9.32;nan
59375;BME280;45172;55.006;73.460;2023-11-21T12:31:57;102455.19;;;-9.37;nan
59375;BME280;45172;55.006;73.460;2023-11-21T12:34:23;102460.81;;;-9.26;nan
59375;BME280;45172;55.006;73.460;2023-11-21T12:36:50;102468.38;;;-9.20;nan
59375;BME280;45172;55.006;73.460;2023-11-21T12:39:17;102431.84;;;-9.25;nan
59375;BME280;45172;55.006;73.460;2023-11-21T12:41:43;102452.09;;;-8.94;nan
59375;BME280;45172;55.006;73.460;2023-11-21T12:44:12;102454.78;;;-8.79;nan
59375;BME280;45172;55.006;73.460;2023-11-21T12:46:42;102428.16;;;-8.79;nan
59375;BME280;45172;55.006;73.460;2023-11-21T12:49:12;102445.03;;;-8.54;nan
59375;BME280;45172;55.006;73.460;2023-11-21T12:51:45;102438.97;;;-8.47;nan
59375;BME280;45172;55.006;73.460;2023-11-21T12:54:12;102401.09;;;-8.63;nan
59375;BME280;45172;55.006;73.460;2023-11-21T12:56:39;102434.03;;;-8.46;nan
59375;BME280;45172;55.006;73.460;2023-11-21T12:59:20;102437.56;;;-8.38;nan
59375;BME280;45172;55.006;73.460;2023-11-21T13:01:47;102383.31;;;-8.61;nan
59375;BME280;45172;55.006;73.460;2023-11-21T13:04:13;102385.94;;;-8.54;nan
59375;BME280;45172;55.006;73.460;2023-11-21T13:06:40;102372.34;;;-8.53;nan